createdAt,value
2023-04-23T00:00:39.654Z,13.10
2023-04-23T00:10:39.018Z,13.10
2023-04-23T00:20:37.918Z,13.00
2023-04-23T00:30:36.984Z,13.10
2023-04-23T00:40:36.022Z,13.10
2023-04-23T00:50:35.058Z,13.00
2023-04-23T01:00:34.097Z,13.00
2023-04-23T01:10:32.753Z,13.00
2023-04-23T01:20:32.003Z,12.90
2023-04-23T01:30:31.222Z,12.90
2023-04-23T01:40:29.999Z,12.80
2023-04-23T01:50:29.553Z,12.70
2023-04-23T02:00:29.766Z,12.50
2023-04-23T02:10:30.331Z,12.40
2023-04-23T02:20:29.767Z,12.30
2023-04-23T02:30:28.924Z,12.30
2023-04-23T02:40:27.852Z,12.20
2023-04-23T02:50:27.111Z,12.00
2023-04-23T03:00:25.966Z,11.90
2023-04-23T03:10:24.798Z,11.80
2023-04-23T03:20:24.159Z,11.80
2023-04-23T03:30:22.821Z,11.90
2023-04-23T03:40:23.835Z,12.10
2023-04-23T03:50:24.806Z,12.30
2023-04-23T04:00:25.290Z,12.30
2023-04-23T04:10:23.875Z,12.20
2023-04-23T04:20:23.012Z,12.10
2023-04-23T04:30:22.470Z,12.10
2023-04-23T04:40:21.914Z,12.00
2023-04-23T04:50:22.129Z,12.10
2023-04-23T05:00:22.143Z,12.20
2023-04-23T05:10:21.076Z,12.60
2023-04-23T05:20:20.663Z,12.90
2023-04-23T05:30:19.995Z,13.20
2023-04-23T05:40:19.210Z,13.40
2023-04-23T05:50:18.021Z,13.70
2023-04-23T06:00:17.368Z,13.90
2023-04-23T06:10:15.798Z,14.20
2023-04-23T06:20:15.117Z,14.40
2023-04-23T06:30:14.184Z,14.80
2023-04-23T06:40:13.053Z,15.40
2023-04-23T06:50:12.195Z,15.70
2023-04-23T07:00:12.733Z,16.00
2023-04-23T07:10:11.942Z,16.00
2023-04-23T07:20:09.987Z,16.30
2023-04-23T07:30:09.354Z,17.30
2023-04-23T07:40:08.704Z,17.10
2023-04-23T07:50:08.076Z,17.50
2023-04-23T08:00:15.135Z,17.50
2023-04-23T08:10:14.270Z,17.30
2023-04-23T08:20:13.272Z,17.00
2023-04-23T08:30:12.349Z,17.00
2023-04-23T08:40:11.171Z,17.30
2023-04-23T08:50:10.201Z,18.70
2023-04-23T09:00:10.429Z,19.40
2023-04-23T09:10:09.028Z,18.90
2023-04-23T09:20:08.936Z,19.20
2023-04-23T09:30:09.242Z,18.90
2023-04-23T09:40:08.923Z,20.30
2023-04-23T09:50:09.975Z,21.10
2023-04-23T10:00:14.267Z,21.10
2023-04-23T10:10:11.991Z,20.60
2023-04-23T10:20:12.155Z,20.90
2023-04-23T10:30:11.236Z,21.10
2023-04-23T10:40:11.921Z,22.20
2023-04-23T10:50:11.162Z,23.00
2023-04-23T11:00:10.153Z,22.80
2023-04-23T11:10:09.059Z,22.90
2023-04-23T11:20:09.866Z,23.00
2023-04-23T11:30:09.236Z,22.20
2023-04-23T11:40:10.441Z,21.90
2023-04-23T11:50:09.826Z,21.60
2023-04-23T12:00:11.106Z,22.20
2023-04-23T12:10:10.136Z,22.60
2023-04-23T12:20:09.196Z,22.80
2023-04-23T12:30:08.890Z,23.10
2023-04-23T12:40:08.516Z,23.30
2023-04-23T12:50:07.437Z,23.00
2023-04-23T13:00:08.351Z,23.20
2023-04-23T13:10:07.487Z,22.70
2023-04-23T13:20:07.029Z,23.20
2023-04-23T13:30:06.484Z,22.80
2023-04-23T13:40:05.651Z,22.40
2023-04-23T13:50:06.197Z,22.80
2023-04-23T14:00:05.228Z,22.80
2023-04-23T14:10:04.168Z,23.00
2023-04-23T14:20:05.212Z,22.90
2023-04-23T14:30:05.127Z,22.70
2023-04-23T14:40:05.020Z,21.50
2023-04-23T14:50:04.532Z,21.20
2023-04-23T15:00:03.856Z,21.80
2023-04-23T15:10:07.500Z,21.70
2023-04-23T15:20:06.303Z,21.00
2023-04-23T15:30:05.352Z,20.30
2023-04-23T15:40:04.400Z,19.70
2023-04-23T15:50:04.145Z,19.30
2023-04-23T16:00:05.202Z,18.70
2023-04-23T16:10:04.304Z,18.20
2023-04-23T16:20:04.329Z,17.90
2023-04-23T16:30:03.780Z,17.40
2023-04-23T16:40:02.477Z,16.90
2023-04-23T16:50:01.424Z,16.40
2023-04-23T17:00:00.329Z,16.00
2023-04-23T17:09:59.493Z,15.70
2023-04-23T17:19:58.604Z,15.40
2023-04-23T17:29:57.591Z,15.50
2023-04-23T17:39:56.727Z,15.40
2023-04-23T17:49:55.473Z,15.40
2023-04-23T18:00:01.255Z,15.30
2023-04-23T18:10:00.787Z,15.10
2023-04-23T18:20:00.737Z,15.00
2023-04-23T18:30:00.335Z,15.00
2023-04-23T18:39:59.503Z,14.90
2023-04-23T18:49:58.549Z,14.80
2023-04-23T18:59:57.601Z,14.70
2023-04-23T19:09:56.642Z,14.60
2023-04-23T19:19:55.492Z,14.50
2023-04-23T19:29:56.223Z,14.60
2023-04-23T19:39:55.633Z,14.40
2023-04-23T19:49:54.373Z,14.10
2023-04-23T19:59:53.762Z,13.80
2023-04-23T20:09:52.583Z,13.60
2023-04-23T20:19:51.522Z,13.50
2023-04-23T20:29:51.144Z,13.60
2023-04-23T20:39:50.457Z,13.60
2023-04-23T20:49:49.596Z,13.50
2023-04-23T20:59:48.649Z,13.50
2023-04-23T21:09:47.401Z,13.40
2023-04-23T21:19:46.414Z,13.50
2023-04-23T21:29:46.508Z,13.50
2023-04-23T21:39:45.492Z,13.40
2023-04-23T21:49:44.522Z,13.10
2023-04-23T21:59:43.745Z,13.10
2023-04-23T22:09:42.700Z,13.20
2023-04-23T22:19:41.640Z,13.20
2023-04-23T22:29:40.739Z,13.30
2023-04-23T22:39:39.528Z,13.20
2023-04-23T22:49:40.421Z,13.20
2023-04-23T22:59:39.956Z,13.20
2023-04-23T23:09:39.512Z,13.20
2023-04-23T23:19:38.560Z,13.00
2023-04-23T23:29:37.591Z,12.80
2023-04-23T23:39:36.902Z,12.60
2023-04-23T23:49:35.686Z,12.40
2023-04-23T23:59:34.920Z,12.20
